sensor_id;sensor_type;location;lat;lon;timestamp;pressure;altitude;pressure_sealevel;temperature;humidity
74798;BME280;63326;45.088;7.658;2024-02-16T00:00:33;99247.38;;;3.31;100.00
74798;BME280;63326;45.088;7.658;2024-02-16T00:03:00;99303.94;;;3.63;100.00
74798;BME280;63326;45.088;7.658;2024-02-16T00:05:27;99198.66;;;3.00;100.00
74798;BME280;63326;45.088;7.658;2024-02-16T00:07:55;99282.16;;;3.70;100.00
74798;BME280;63326;45.088;7.658;2024-02-16T00:10:26;99280.75;;;3.66;100.00
74798;BME280;63326;45.088;7.658;2024-02-16T00:12:52;99263.56;;;3.49;100.00
74798;BME280;63326;45.088;7.658;2024-02-16T00:15:21;99283.00;;;3.49;100.00
74798;BME280;63326;45.088;7.658;2024-02-16T00:17:48;99245.09;;;3.26;100.00
74798;BME280;63326;45.088;7.658;2024-02-16T00:20:16;99258.31;;;3.38;100.00
74798;BME280;63326;45.088;7.658;2024-02-16T00:22:43;99304.28;;;3.70;100.00
74798;BME280;63326;45.088;7.658;2024-02-16T00:25:13;99300.56;;;3.61;100.00
74798;BME280;63326;45.088;7.658;2024-02-16T00:27:40;99305.88;;;3.61;100.00
74798;BME280;63326;45.088;7.658;2024-02-16T00:30:09;99288.78;;;3.54;100.00
74798;BME280;63326;45.088;7.658;2024-02-16T00:32:42;99294.66;;;3.58;100.00
74798;BME280;63326;45.088;7.658;2024-02-16T00:35:12;99237.06;;;3.17;100.00
74798;BME280;63326;45.088;7.658;2024-02-16T00:37:39;99300.63;;;3.50;100.00
74798;BME280;63326;45.088;7.658;2024-02-16T00:40:06;99241.03;;;3.22;100.00
74798;BME280;63326;45.088;7.658;2024-02-16T00:42:35;99223.06;;;3.15;100.00
74798;BME280;63326;45.088;7.658;2024-02-16T00:45:03;99202.34;;;3.09;100.00
74798;BME280;63326;45.088;7.658;2024-02-16T00:47:33;99263.06;;;3.55;100.00
74798;BME280;63326;45.088;7.658;2024-02-16T00:50:02;99241.75;;;3.45;100.00
74798;BME280;63326;45.088;7.658;2024-02-16T00:52:32;99237.53;;;3.43;100.00
74798;BME280;63326;45.088;7.658;2024-02-16T00:55:03;99256.69;;;3.67;100.00
74798;BME280;63326;45.088;7.658;2024-02-16T00:57:40;99255.09;;;3.76;100.00
74798;BME280;63326;45.088;7.658;2024-02-16T01:00:08;99198.16;;;3.48;100.00
74798;BME280;63326;45.088;7.658;2024-02-16T01:02:36;99255.78;;;3.78;100.00
74798;BME280;63326;45.088;7.658;2024-02-16T01:05:02;99227.84;;;3.53;100.00
74798;BME280;63326;45.088;7.658;2024-02-16T01:07:30;99249.44;;;3.69;100.00
74798;BME280;63326;45.088;7.658;2024-02-16T01:09:58;99145.97;;;2.95;100.00
74798;BME280;63326;45.088;7.658;2024-02-16T01:12:26;99206.78;;;3.40;100.00
74798;BME280;63326;45.088;7.658;2024-02-16T01:14:53;99264.59;;;3.78;100.00
74798;BME280;63326;45.088;7.658;2024-02-16T01:17:20;99245.84;;;3.70;100.00
74798;BME280;63326;45.088;7.658;2024-02-16T01:19:51;99177.06;;;3.25;100.00
74798;BME280;63326;45.088;7.658;2024-02-16T01:22:18;99267.44;;;3.86;100.00
74798;BME280;63326;45.088;7.658;2024-02-16T01:24:46;99235.25;;;3.59;100.00
74798;BME280;63326;45.088;7.658;2024-02-16T01:27:13;99227.00;;;3.52;100.00
74798;BME280;63326;45.088;7.658;2024-02-16T01:29:40;99275.00;;;3.81;100.00
74798;BME280;63326;45.088;7.658;2024-02-16T01:32:08;99256.56;;;3.69;100.00
74798;BME280;63326;45.088;7.658;2024-02-16T01:34:37;99246.84;;;3.58;100.00
74798;BME280;63326;45.088;7.658;2024-02-16T01:37:06;99198.81;;;3.19;100.00
74798;BME280;63326;45.088;7.658;2024-02-16T01:39:33;99249.50;;;3.58;100.00
74798;BME280;63326;45.088;7.658;2024-02-16T01:42:01;99272.63;;;3.67;100.00
74798;BME280;63326;45.088;7.658;2024-02-16T01:44:29;99264.22;;;3.62;100.00
74798;BME280;63326;45.088;7.658;2024-02-16T01:46:55;99249.06;;;3.53;100.00
74798;BME280;63326;45.088;7.658;2024-02-16T01:49:23;99153.63;;;2.89;100.00
74798;BME280;63326;45.088;7.658;2024-02-16T01:51:50;99264.38;;;3.60;100.00
74798;BME280;63326;45.088;7.658;2024-02-16T01:54:17;99152.38;;;2.93;100.00
74798;BME280;63326;45.088;7.658;2024-02-16T01:56:45;99194.03;;;3.13;100.00
74798;BME280;63326;45.088;7.658;2024-02-16T01:59:13;99102.41;;;2.56;100.00
74798;BME280;63326;45.088;7.658;2024-02-16T02:01:40;99251.41;;;3.46;100.00
74798;BME280;63326;45.088;7.658;2024-02-16T02:04:07;99117.94;;;2.61;100.00
74798;BME280;63326;45.088;7.658;2024-02-16T02:06:34;99131.50;;;2.67;100.00
74798;BME280;63326;45.088;7.658;2024-02-16T02:09:03;99163.06;;;2.82;100.00
74798;BME280;63326;45.088;7.658;2024-02-16T02:11:30;99184.22;;;2.93;100.00
74798;BME280;63326;45.088;7.658;2024-02-16T02:13:57;99218.59;;;3.15;100.00
74798;BME280;63326;45.088;7.658;2024-02-16T02:16:24;99124.13;;;2.50;100.00
74798;BME280;63326;45.088;7.658;2024-02-16T02:18:56;99146.00;;;2.63;100.00
74798;BME280;63326;45.088;7.658;2024-02-16T02:21:25;99173.94;;;2.79;100.00
74798;BME280;63326;45.088;7.658;2024-02-16T02:23:52;99203.84;;;3.01;100.00
74798;BME280;63326;45.088;7.658;2024-02-16T02:26:20;99237.59;;;3.11;100.00
74798;BME280;63326;45.088;7.658;2024-02-16T02:28:47;99235.06;;;3.09;100.00
74798;BME280;63326;45.088;7.658;2024-02-16T02:31:14;99229.75;;;3.09;100.00
74798;BME280;63326;45.088;7.658;2024-02-16T02:33:41;99224.94;;;3.03;100.00
74798;BME280;63326;45.088;7.658;2024-02-16T02:36:08;99198.88;;;2.76;100.00
74798;BME280;63326;45.088;7.658;2024-02-16T02:38:35;99157.19;;;2.67;100.00
74798;BME280;63326;45.088;7.658;2024-02-16T02:41:02;99135.09;;;2.45;100.00
74798;BME280;63326;45.088;7.658;2024-02-16T02:43:33;99167.00;;;2.87;100.00
74798;BME280;63326;45.088;7.658;2024-02-16T02:46:00;99229.88;;;3.28;100.00
74798;BME280;63326;45.088;7.658;2024-02-16T02:48:27;99148.75;;;2.73;100.00
74798;BME280;63326;45.088;7.658;2024-02-16T02:50:54;99210.69;;;3.04;100.00
74798;BME280;63326;45.088;7.658;2024-02-16T02:53:24;99143.13;;;2.55;100.00
74798;BME280;63326;45.088;7.658;2024-02-16T02:55:53;99149.66;;;2.51;100.00
74798;BME280;63326;45.088;7.658;2024-02-16T02:58:21;99192.00;;;2.73;100.00
74798;BME280;63326;45.088;7.658;2024-02-16T03:00:49;99132.34;;;2.36;100.00
74798;BME280;63326;45.088;7.658;2024-02-16T03:03:19;99195.16;;;2.67;100.00
74798;BME280;63326;45.088;7.658;2024-02-16T03:05:49;99215.84;;;2.85;100.00
74798;BME280;63326;45.088;7.658;2024-02-16T03:08:18;99221.16;;;2.85;100.00
74798;BME280;63326;45.088;7.658;2024-02-16T03:10:45;99168.59;;;2.46;100.00
74798;BME280;63326;45.088;7.658;2024-02-16T03:13:12;99217.31;;;2.78;100.00
74798;BME280;63326;45.088;7.658;2024-02-16T03:15:42;99161.72;;;2.44;100.00
74798;BME280;63326;45.088;7.658;2024-02-16T03:18:08;99183.84;;;2.65;100.00
74798;BME280;63326;45.088;7.658;2024-02-16T03:20:36;99145.06;;;2.53;100.00
74798;BME280;63326;45.088;7.658;2024-02-16T03:23:03;99175.16;;;2.63;100.00
74798;BME280;63326;45.088;7.658;2024-02-16T03:25:32;99115.88;;;2.32;100.00
74798;BME280;63326;45.088;7.658;2024-02-16T03:27:58;99120.91;;;2.35;100.00
74798;BME280;63326;45.088;7.658;2024-02-16T03:30:27;99117.41;;;2.35;100.00
74798;BME280;63326;45.088;7.658;2024-02-16T03:32:56;99176.81;;;2.75;100.00
74798;BME280;63326;45.088;7.658;2024-02-16T03:35:25;99101.19;;;2.28;100.00
74798;BME280;63326;45.088;7.658;2024-02-16T03:37:56;99085.66;;;2.24;100.00
74798;BME280;63326;45.088;7.658;2024-02-16T03:40:24;99180.47;;;2.63;100.00
74798;BME280;63326;45.088;7.658;2024-02-16T03:42:52;99201.28;;;2.79;100.00
74798;BME280;63326;45.088;7.658;2024-02-16T03:45:18;99197.75;;;2.90;100.00
74798;BME280;63326;45.088;7.658;2024-02-16T03:47:45;99200.19;;;2.82;100.00
74798;BME280;63326;45.088;7.658;2024-02-16T03:50:15;99155.81;;;2.52;100.00
74798;BME280;63326;45.088;7.658;2024-02-16T03:52:43;99120.31;;;2.32;100.00
74798;BME280;63326;45.088;7.658;2024-02-16T03:55:10;99166.16;;;2.55;100.00
74798;BME280;63326;45.088;7.658;2024-02-16T03:57:39;99202.25;;;2.78;100.00
74798;BME280;63326;45.088;7.658;2024-02-16T04:00:06;99203.84;;;2.69;100.00
74798;BME280;63326;45.088;7.658;2024-02-16T04:02:40;99167.13;;;2.54;100.00
74798;BME280;63326;45.088;7.658;2024-02-16T04:05:08;99198.69;;;2.68;100.00
74798;BME280;63326;45.088;7.658;2024-02-16T04:07:37;99162.47;;;2.35;100.00
74798;BME280;63326;45.088;7.658;2024-02-16T04:10:04;99185.25;;;2.37;100.00
74798;BME280;63326;45.088;7.658;2024-02-16T04:12:32;99195.13;;;2.35;100.00
74798;BME280;63326;45.088;7.658;2024-02-16T04:14:59;99202.84;;;2.38;100.00
74798;BME280;63326;45.088;7.658;2024-02-16T04:17:26;99164.47;;;2.10;100.00
74798;BME280;63326;45.088;7.658;2024-02-16T04:19:55;99134.16;;;1.81;100.00
74798;BME280;63326;45.088;7.658;2024-02-16T04:22:22;99203.69;;;2.16;100.00
74798;BME280;63326;45.088;7.658;2024-02-16T04:24:49;99150.50;;;1.86;100.00
74798;BME280;63326;45.088;7.658;2024-02-16T04:27:15;99116.81;;;1.54;100.00
74798;BME280;63326;45.088;7.658;2024-02-16T04:29:42;99129.56;;;1.49;100.00
74798;BME280;63326;45.088;7.658;2024-02-16T04:32:09;99144.25;;;1.65;100.00
74798;BME280;63326;45.088;7.658;2024-02-16T04:34:37;99198.41;;;1.94;100.00
74798;BME280;63326;45.088;7.658;2024-02-16T04:37:03;99157.59;;;1.74;100.00
74798;BME280;63326;45.088;7.658;2024-02-16T04:39:31;99194.78;;;2.06;100.00
74798;BME280;63326;45.088;7.658;2024-02-16T04:41:58;99093.94;;;1.53;100.00
74798;BME280;63326;45.088;7.658;2024-02-16T04:44:27;99105.63;;;1.51;100.00
74798;BME280;63326;45.088;7.658;2024-02-16T04:46:57;99117.91;;;1.63;100.00
74798;BME280;63326;45.088;7.658;2024-02-16T04:49:24;99172.63;;;1.96;100.00
74798;BME280;63326;45.088;7.658;2024-02-16T04:51:51;99167.72;;;1.92;100.00
74798;BME280;63326;45.088;7.658;2024-02-16T04:54:18;99180.47;;;2.09;100.00
74798;BME280;63326;45.088;7.658;2024-02-16T04:56:45;99109.94;;;1.74;100.00
74798;BME280;63326;45.088;7.658;2024-02-16T04:59:11;99124.38;;;1.81;100.00
74798;BME280;63326;45.088;7.658;2024-02-16T05:01:40;99101.41;;;1.82;100.00
74798;BME280;63326;45.088;7.658;2024-02-16T05:04:07;99072.69;;;1.66;100.00
74798;BME280;63326;45.088;7.658;2024-02-16T05:06:39;99149.88;;;2.05;100.00
74798;BME280;63326;45.088;7.658;2024-02-16T05:09:07;99181.16;;;2.22;100.00
74798;BME280;63326;45.088;7.658;2024-02-16T05:11:34;99092.88;;;1.67;100.00
74798;BME280;63326;45.088;7.658;2024-02-16T05:14:02;99174.44;;;2.29;100.00
74798;BME280;63326;45.088;7.658;2024-02-16T05:16:30;99115.69;;;2.02;100.00
74798;BME280;63326;45.088;7.658;2024-02-16T05:18:59;99188.09;;;2.45;100.00
74798;BME280;63326;45.088;7.658;2024-02-16T05:21:26;99164.41;;;2.33;100.00
74798;BME280;63326;45.088;7.658;2024-02-16T05:23:53;99214.22;;;2.61;100.00
74798;BME280;63326;45.088;7.658;2024-02-16T05:26:21;99169.56;;;2.45;100.00
74798;BME280;63326;45.088;7.658;2024-02-16T05:28:48;99172.91;;;2.59;100.00
74798;BME280;63326;45.088;7.658;2024-02-16T05:31:17;99196.06;;;2.89;100.00
74798;BME280;63326;45.088;7.658;2024-02-16T05:33:47;99200.06;;;2.83;100.00
74798;BME280;63326;45.088;7.658;2024-02-16T05:36:19;99132.31;;;2.47;100.00
74798;BME280;63326;45.088;7.658;2024-02-16T05:38:47;99116.47;;;2.25;100.00
74798;BME280;63326;45.088;7.658;2024-02-16T05:41:17;99057.59;;;1.78;100.00
74798;BME280;63326;45.088;7.658;2024-02-16T05:43:46;99176.53;;;2.46;100.00
74798;BME280;63326;45.088;7.658;2024-02-16T05:46:17;99195.84;;;2.49;100.00
74798;BME280;63326;45.088;7.658;2024-02-16T05:48:46;99167.34;;;2.18;100.00
74798;BME280;63326;45.088;7.658;2024-02-16T05:51:15;99183.56;;;2.25;100.00
74798;BME280;63326;45.088;7.658;2024-02-16T05:53:41;99120.91;;;1.81;100.00
74798;BME280;63326;45.088;7.658;2024-02-16T05:56:09;99182.50;;;2.16;100.00
74798;BME280;63326;45.088;7.658;2024-02-16T05:58:37;99084.09;;;1.44;100.00
74798;BME280;63326;45.088;7.658;2024-02-16T06:01:04;99128.59;;;1.73;100.00
74798;BME280;63326;45.088;7.658;2024-02-16T06:03:31;99147.25;;;1.82;100.00
74798;BME280;63326;45.088;7.658;2024-02-16T06:06:00;99143.66;;;1.72;100.00
74798;BME280;63326;45.088;7.658;2024-02-16T06:08:30;99186.84;;;1.95;100.00
74798;BME280;63326;45.088;7.658;2024-02-16T06:10:56;99159.31;;;1.86;100.00
74798;BME280;63326;45.088;7.658;2024-02-16T06:13:23;99156.75;;;1.74;100.00
74798;BME280;63326;45.088;7.658;2024-02-16T06:15:52;99192.38;;;2.03;100.00
74798;BME280;63326;45.088;7.658;2024-02-16T06:18:20;99116.22;;;1.62;100.00
74798;BME280;63326;45.088;7.658;2024-02-16T06:20:48;99100.00;;;1.55;100.00
74798;BME280;63326;45.088;7.658;2024-02-16T06:23:16;99205.28;;;2.19;100.00
74798;BME280;63326;45.088;7.658;2024-02-16T06:25:45;99200.81;;;2.20;100.00
74798;BME280;63326;45.088;7.658;2024-02-16T06:28:16;99175.28;;;2.18;100.00
74798;BME280;63326;45.088;7.658;2024-02-16T06:30:44;99166.41;;;1.97;100.00
74798;BME280;63326;45.088;7.658;2024-02-16T06:33:13;99186.38;;;2.01;100.00
74798;BME280;63326;45.088;7.658;2024-02-16T06:35:45;99113.22;;;1.55;100.00
74798;BME280;63326;45.088;7.658;2024-02-16T06:38:13;99169.50;;;2.02;100.00
74798;BME280;63326;45.088;7.658;2024-02-16T06:40:40;99066.66;;;1.53;100.00
74798;BME280;63326;45.088;7.658;2024-02-16T06:43:07;99148.94;;;1.95;100.00
74798;BME280;63326;45.088;7.658;2024-02-16T06:45:37;99141.59;;;1.98;100.00
74798;BME280;63326;45.088;7.658;2024-02-16T06:48:05;99102.63;;;1.78;100.00
74798;BME280;63326;45.088;7.658;2024-02-16T06:50:33;99074.00;;;1.49;100.00
74798;BME280;63326;45.088;7.658;2024-02-16T06:53:05;99186.94;;;2.38;100.00
74798;BME280;63326;45.088;7.658;2024-02-16T06:55:33;99186.19;;;2.47;100.00
74798;BME280;63326;45.088;7.658;2024-02-16T06:58:01;99202.78;;;2.61;100.00
74798;BME280;63326;45.088;7.658;2024-02-16T07:00:31;99158.00;;;2.35;100.00
74798;BME280;63326;45.088;7.658;2024-02-16T07:02:58;99146.78;;;2.43;100.00
74798;BME280;63326;45.088;7.658;2024-02-16T07:05:25;99196.09;;;2.78;100.00
74798;BME280;63326;45.088;7.658;2024-02-16T07:07:54;99187.00;;;2.91;100.00
74798;BME280;63326;45.088;7.658;2024-02-16T07:10:22;99213.03;;;3.18;100.00
74798;BME280;63326;45.088;7.658;2024-02-16T07:12:49;99198.63;;;3.11;100.00
74798;BME280;63326;45.088;7.658;2024-02-16T07:15:16;99200.56;;;3.30;100.00
74798;BME280;63326;45.088;7.658;2024-02-16T07:17:44;99226.78;;;3.65;100.00
74798;BME280;63326;45.088;7.658;2024-02-16T07:20:11;99236.34;;;3.77;100.00
74798;BME280;63326;45.088;7.658;2024-02-16T07:22:42;99226.81;;;3.96;100.00
74798;BME280;63326;45.088;7.658;2024-02-16T07:25:12;99185.09;;;3.86;100.00
74798;BME280;63326;45.088;7.658;2024-02-16T07:27:40;99186.94;;;3.96;100.00
74798;BME280;63326;45.088;7.658;2024-02-16T07:30:09;99192.34;;;4.15;100.00
74798;BME280;63326;45.088;7.658;2024-02-16T07:32:52;99194.66;;;4.39;100.00
74798;BME280;63326;45.088;7.658;2024-02-16T07:35:21;99226.34;;;4.71;100.00
74798;BME280;63326;45.088;7.658;2024-02-16T07:37:51;99194.31;;;4.72;100.00
74798;BME280;63326;45.088;7.658;2024-02-16T07:40:21;99183.25;;;4.87;100.00
74798;BME280;63326;45.088;7.658;2024-02-16T07:42:48;99084.41;;;4.53;100.00
74798;BME280;63326;45.088;7.658;2024-02-16T07:45:16;99208.53;;;5.78;100.00
74798;BME280;63326;45.088;7.658;2024-02-16T07:47:44;99215.28;;;6.19;100.00
74798;BME280;63326;45.088;7.658;2024-02-16T07:50:12;99227.75;;;6.73;96.64
74798;BME280;63326;45.088;7.658;2024-02-16T07:52:40;99231.38;;;7.00;95.61
74798;BME280;63326;45.088;7.658;2024-02-16T07:55:07;99163.47;;;7.20;92.49
74798;BME280;63326;45.088;7.658;2024-02-16T07:57:34;99191.56;;;7.94;87.45
74798;BME280;63326;45.088;7.658;2024-02-16T08:00:02;99236.47;;;8.93;81.46
74798;BME280;63326;45.088;7.658;2024-02-16T08:02:33;99241.41;;;9.46;79.54
74798;BME280;63326;45.088;7.658;2024-02-16T08:05:01;99206.19;;;9.90;75.57
74798;BME280;63326;45.088;7.658;2024-02-16T08:07:32;99238.97;;;10.64;71.52
74798;BME280;63326;45.088;7.658;2024-02-16T08:10:00;99214.56;;;11.35;67.11
74798;BME280;63326;45.088;7.658;2024-02-16T08:12:27;99228.44;;;12.22;62.83
74798;BME280;63326;45.088;7.658;2024-02-16T08:14:54;99216.06;;;12.43;62.16
74798;BME280;63326;45.088;7.658;2024-02-16T08:17:26;99153.00;;;12.52;59.87
74798;BME280;63326;45.088;7.658;2024-02-16T08:19:54;99221.13;;;13.18;59.39
74798;BME280;63326;45.088;7.658;2024-02-16T08:22:21;99223.56;;;13.34;58.23
74798;BME280;63326;45.088;7.658;2024-02-16T08:24:50;99225.94;;;13.44;58.30
74798;BME280;63326;45.088;7.658;2024-02-16T08:27:18;99161.97;;;13.38;57.30
74798;BME280;63326;45.088;7.658;2024-02-16T08:29:45;99230.91;;;14.87;52.37
74798;BME280;63326;45.088;7.658;2024-02-16T08:32:13;99226.03;;;15.24;50.70
74798;BME280;63326;45.088;7.658;2024-02-16T08:34:40;99214.91;;;14.92;50.90
74798;BME280;63326;45.088;7.658;2024-02-16T08:37:07;99218.97;;;14.68;51.61
74798;BME280;63326;45.088;7.658;2024-02-16T08:39:37;99236.28;;;14.80;50.48
74798;BME280;63326;45.088;7.658;2024-02-16T08:42:05;99170.06;;;13.59;53.47
74798;BME280;63326;45.088;7.658;2024-02-16T08:44:32;99183.84;;;13.99;52.94
74798;BME280;63326;45.088;7.658;2024-02-16T08:46:59;99237.75;;;14.76;51.87
74798;BME280;63326;45.088;7.658;2024-02-16T08:49:26;99140.59;;;14.27;50.82
74798;BME280;63326;45.088;7.658;2024-02-16T08:51:53;99164.72;;;14.70;50.24
74798;BME280;63326;45.088;7.658;2024-02-16T08:54:21;99157.06;;;13.97;51.31
74798;BME280;63326;45.088;7.658;2024-02-16T08:56:53;99172.94;;;13.51;53.85
74798;BME280;63326;45.088;7.658;2024-02-16T08:59:21;99236.19;;;14.26;53.02
74798;BME280;63326;45.088;7.658;2024-02-16T09:01:48;99242.00;;;14.23;53.09
74798;BME280;63326;45.088;7.658;2024-02-16T09:04:15;99193.94;;;13.84;52.27
74798;BME280;63326;45.088;7.658;2024-02-16T09:06:43;99210.09;;;13.13;54.42
74798;BME280;63326;45.088;7.658;2024-02-16T09:09:10;99212.50;;;12.13;57.69
74798;BME280;63326;45.088;7.658;2024-02-16T09:11:37;99230.34;;;11.38;61.30
74798;BME280;63326;45.088;7.658;2024-02-16T09:14:05;99173.63;;;9.93;66.21
74798;BME280;63326;45.088;7.658;2024-02-16T09:16:32;99159.78;;;10.60;64.42
74798;BME280;63326;45.088;7.658;2024-02-16T09:18:59;99152.81;;;11.27;63.20
74798;BME280;63326;45.088;7.658;2024-02-16T09:21:28;99245.34;;;13.11;57.86
74798;BME280;63326;45.088;7.658;2024-02-16T09:23:58;99237.16;;;14.46;53.70
74798;BME280;63326;45.088;7.658;2024-02-16T09:26:29;99249.03;;;16.14;47.87
74798;BME280;63326;45.088;7.658;2024-02-16T09:29:00;99244.06;;;17.33;45.17
74798;BME280;63326;45.088;7.658;2024-02-16T09:31:28;99229.38;;;18.04;41.13
74798;BME280;63326;45.088;7.658;2024-02-16T09:33:54;99218.31;;;16.60;43.27
74798;BME280;63326;45.088;7.658;2024-02-16T09:36:21;99210.34;;;16.78;42.82
74798;BME280;63326;45.088;7.658;2024-02-16T09:38:49;99231.59;;;18.57;40.87
74798;BME280;63326;45.088;7.658;2024-02-16T09:41:17;99237.97;;;18.01;41.18
74798;BME280;63326;45.088;7.658;2024-02-16T09:43:44;99247.28;;;17.17;42.73
74798;BME280;63326;45.088;7.658;2024-02-16T09:46:21;99253.38;;;18.07;41.04
74798;BME280;63326;45.088;7.658;2024-02-16T09:48:50;99238.84;;;16.09;44.65
74798;BME280;63326;45.088;7.658;2024-02-16T09:51:21;99228.41;;;16.06;45.56
74798;BME280;63326;45.088;7.658;2024-02-16T09:53:50;99231.69;;;15.42;47.21
74798;BME280;63326;45.088;7.658;2024-02-16T09:56:25;99224.38;;;16.48;44.73
74798;BME280;63326;45.088;7.658;2024-02-16T09:58:53;99249.66;;;17.77;41.74
74798;BME280;63326;45.088;7.658;2024-02-16T10:01:23;99251.91;;;15.53;46.23
74798;BME280;63326;45.088;7.658;2024-02-16T10:03:52;99246.06;;;16.48;46.08
74798;BME280;63326;45.088;7.658;2024-02-16T10:06:19;99175.09;;;15.67;45.21
74798;BME280;63326;45.088;7.658;2024-02-16T10:08:56;99222.06;;;16.52;44.43
74798;BME280;63326;45.088;7.658;2024-02-16T10:11:27;99239.44;;;16.05;44.92
74798;BME280;63326;45.088;7.658;2024-02-16T10:14:02;99205.69;;;15.94;44.31
74798;BME280;63326;45.088;7.658;2024-02-16T10:16:32;99258.72;;;16.81;43.27
74798;BME280;63326;45.088;7.658;2024-02-16T10:19:07;99266.66;;;17.65;41.66
74798;BME280;63326;45.088;7.658;2024-02-16T10:21:34;99248.28;;;17.92;40.29
74798;BME280;63326;45.088;7.658;2024-02-16T10:24:09;99257.16;;;16.14;43.22
74798;BME280;63326;45.088;7.658;2024-02-16T10:26:39;99244.88;;;17.40;41.59
74798;BME280;63326;45.088;7.658;2024-02-16T10:29:10;99273.69;;;18.73;38.93
74798;BME280;63326;45.088;7.658;2024-02-16T10:31:42;99256.09;;;16.48;42.42
74798;BME280;63326;45.088;7.658;2024-02-16T10:34:11;99264.13;;;17.64;40.78
74798;BME280;63326;45.088;7.658;2024-02-16T10:36:39;99263.59;;;18.55;39.52
74798;BME280;63326;45.088;7.658;2024-02-16T10:39:08;99260.44;;;18.95;37.96
74798;BME280;63326;45.088;7.658;2024-02-16T10:41:41;99244.19;;;18.51;38.41
74798;BME280;63326;45.088;7.658;2024-02-16T10:44:10;99263.56;;;18.37;38.92
74798;BME280;63326;45.088;7.658;2024-02-16T10:46:37;99268.91;;;19.05;37.75
74798;BME280;63326;45.088;7.658;2024-02-16T10:49:05;99269.34;;;19.02;37.13
74798;BME280;63326;45.088;7.658;2024-02-16T10:51:39;99271.78;;;18.92;37.10
74798;BME280;63326;45.088;7.658;2024-02-16T10:54:09;99243.69;;;18.36;37.86
74798;BME280;63326;45.088;7.658;2024-02-16T10:56:40;99219.97;;;17.82;38.32
74798;BME280;63326;45.088;7.658;2024-02-16T10:59:10;99236.47;;;17.80;39.19
74798;BME280;63326;45.088;7.658;2024-02-16T11:01:41;99239.09;;;18.37;38.55
74798;BME280;63326;45.088;7.658;2024-02-16T11:04:15;99252.44;;;16.87;40.40
74798;BME280;63326;45.088;7.658;2024-02-16T11:06:55;99258.78;;;15.49;44.19
74798;BME280;63326;45.088;7.658;2024-02-16T11:09:35;99259.88;;;17.05;41.67
74798;BME280;63326;45.088;7.658;2024-02-16T11:12:05;99163.25;;;17.04;40.87
74798;BME280;63326;45.088;7.658;2024-02-16T11:14:45;99251.22;;;18.16;39.22
74798;BME280;63326;45.088;7.658;2024-02-16T11:17:19;99255.19;;;16.74;41.22
74798;BME280;63326;45.088;7.658;2024-02-16T11:19:47;99178.78;;;16.83;39.42
74798;BME280;63326;45.088;7.658;2024-02-16T11:22:17;99195.31;;;17.20;39.67
74798;BME280;63326;45.088;7.658;2024-02-16T11:24:47;99210.75;;;17.83;38.89
74798;BME280;63326;45.088;7.658;2024-02-16T11:27:16;99223.09;;;17.79;39.02
74798;BME280;63326;45.088;7.658;2024-02-16T11:29:47;99234.03;;;17.34;39.92
74798;BME280;63326;45.088;7.658;2024-02-16T11:32:15;99209.03;;;16.87;40.66
74798;BME280;63326;45.088;7.658;2024-02-16T11:34:42;99234.75;;;17.54;39.92
74798;BME280;63326;45.088;7.658;2024-02-16T11:37:12;99215.97;;;17.53;39.76
74798;BME280;63326;45.088;7.658;2024-02-16T11:39:39;99224.34;;;17.83;39.07
74798;BME280;63326;45.088;7.658;2024-02-16T11:42:13;99220.75;;;18.07;38.84
74798;BME280;63326;45.088;7.658;2024-02-16T11:44:52;99201.69;;;17.89;39.08
74798;BME280;63326;45.088;7.658;2024-02-16T11:47:22;99192.06;;;17.93;39.67
74798;BME280;63326;45.088;7.658;2024-02-16T11:50:09;99217.44;;;17.49;40.04
74798;BME280;63326;45.088;7.658;2024-02-16T11:52:41;99204.16;;;16.44;41.86
74798;BME280;63326;45.088;7.658;2024-02-16T11:55:12;99206.59;;;16.72;41.73
74798;BME280;63326;45.088;7.658;2024-02-16T11:57:41;99186.38;;;17.06;41.27
74798;BME280;63326;45.088;7.658;2024-02-16T12:00:09;99207.59;;;17.54;40.55
74798;BME280;63326;45.088;7.658;2024-02-16T12:02:42;99189.69;;;17.47;41.37
74798;BME280;63326;45.088;7.658;2024-02-16T12:05:14;99145.13;;;17.29;41.65
74798;BME280;63326;45.088;7.658;2024-02-16T12:07:41;99184.84;;;17.49;41.53
74798;BME280;63326;45.088;7.658;2024-02-16T12:10:18;99177.94;;;16.32;44.21
74798;BME280;63326;45.088;7.658;2024-02-16T12:12:48;99193.53;;;16.36;44.82
74798;BME280;63326;45.088;7.658;2024-02-16T12:15:15;99179.53;;;16.97;43.43
74798;BME280;63326;45.088;7.658;2024-02-16T12:17:44;99159.25;;;17.38;42.63
74798;BME280;63326;45.088;7.658;2024-02-16T12:20:14;99107.69;;;17.06;42.17
74798;BME280;63326;45.088;7.658;2024-02-16T12:22:45;99191.41;;;17.41;41.97
74798;BME280;63326;45.088;7.658;2024-02-16T12:25:14;99077.44;;;17.09;41.63
74798;BME280;63326;45.088;7.658;2024-02-16T12:27:41;99121.38;;;17.75;41.29
74798;BME280;63326;45.088;7.658;2024-02-16T12:30:09;99180.16;;;18.12;40.64
74798;BME280;63326;45.088;7.658;2024-02-16T12:32:36;99142.91;;;17.45;40.72
74798;BME280;63326;45.088;7.658;2024-02-16T12:35:03;99095.53;;;16.84;41.77
74798;BME280;63326;45.088;7.658;2024-02-16T12:37:33;99108.72;;;16.80;41.57
74798;BME280;63326;45.088;7.658;2024-02-16T12:40:01;99169.97;;;16.95;42.56
74798;BME280;63326;45.088;7.658;2024-02-16T12:42:28;99139.84;;;16.65;43.29
74798;BME280;63326;45.088;7.658;2024-02-16T12:44:56;99135.84;;;16.67;43.10
74798;BME280;63326;45.088;7.658;2024-02-16T12:47:24;99164.47;;;17.08;42.54
74798;BME280;63326;45.088;7.658;2024-02-16T12:49:56;99158.72;;;17.29;41.37
74798;BME280;63326;45.088;7.658;2024-02-16T12:52:27;99097.69;;;17.07;41.22
74798;BME280;63326;45.088;7.658;2024-02-16T12:54:56;99133.41;;;17.29;40.79
74798;BME280;63326;45.088;7.658;2024-02-16T12:57:25;99140.13;;;16.50;41.76
74798;BME280;63326;45.088;7.658;2024-02-16T12:59:52;99053.78;;;16.09;41.99
74798;BME280;63326;45.088;7.658;2024-02-16T13:02:19;99050.75;;;15.79;42.64
74798;BME280;63326;45.088;7.658;2024-02-16T13:04:46;99122.69;;;16.33;42.59
74798;BME280;63326;45.088;7.658;2024-02-16T13:07:14;99123.50;;;16.33;42.54